sensor_id;sensor_type;location;lat;lon;timestamp;pressure;altitude;pressure_sealevel;temperature;humidity
62680;BME280;68213;40.528;44.712;2023-04-01T00:00:02;79475.06;;;-3.51;66.23
62680;BME280;68213;40.528;44.712;2023-04-01T00:01:05;79467.56;;;-3.56;66.50
62680;BME280;68213;40.528;44.712;2023-04-01T00:02:06;79471.53;;;-3.63;67.40
62680;BME280;68213;40.528;44.712;2023-04-01T00:03:06;79458.69;;;-3.63;68.06
62680;BME280;68213;40.528;44.712;2023-04-01T00:04:07;79462.13;;;-3.68;67.80
62680;BME280;68213;40.528;44.712;2023-04-01T00:05:09;79460.09;;;-3.70;68.04
62680;BME280;68213;40.528;44.712;2023-04-01T00:06:15;79456.00;;;-3.73;66.94
62680;BME280;68213;40.528;44.712;2023-04-01T00:07:16;79455.31;;;-3.73;67.13
62680;BME280;68213;40.528;44.712;2023-04-01T00:08:17;79462.19;;;-3.76;66.08
62680;BME280;68213;40.528;44.712;2023-04-01T00:09:18;79462.19;;;-3.76;65.70
62680;BME280;68213;40.528;44.712;2023-04-01T00:10:19;79431.63;;;-3.97;66.00
62680;BME280;68213;40.528;44.712;2023-04-01T00:11:20;79464.91;;;-3.74;65.30
62680;BME280;68213;40.528;44.712;2023-04-01T00:12:21;79447.31;;;-3.85;65.49
62680;BME280;68213;40.528;44.712;2023-04-01T00:13:22;79455.00;;;-3.77;65.41
62680;BME280;68213;40.528;44.712;2023-04-01T00:14:23;79458.25;;;-3.77;65.28
62680;BME280;68213;40.528;44.712;2023-04-01T00:15:23;79461.88;;;-3.80;65.54
62680;BME280;68213;40.528;44.712;2023-04-01T00:16:27;79453.16;;;-3.85;66.56
62680;BME280;68213;40.528;44.712;2023-04-01T00:17:28;79457.75;;;-3.83;66.90
62680;BME280;68213;40.528;44.712;2023-04-01T00:18:28;79456.75;;;-3.88;67.29
62680;BME280;68213;40.528;44.712;2023-04-01T00:19:29;79441.75;;;-3.99;67.31
62680;BME280;68213;40.528;44.712;2023-04-01T00:20:30;79448.88;;;-3.90;67.11
62680;BME280;68213;40.528;44.712;2023-04-01T00:21:31;79455.03;;;-4.26;68.78
62680;BME280;68213;40.528;44.712;2023-04-01T00:22:31;79455.25;;;-4.39;68.59
62680;BME280;68213;40.528;44.712;2023-04-01T00:23:33;79453.88;;;-4.40;68.46
62680;BME280;68213;40.528;44.712;2023-04-01T00:24:36;79457.34;;;-4.61;69.57
62680;BME280;68213;40.528;44.712;2023-04-01T00:25:37;79459.03;;;-4.56;70.90
62680;BME280;68213;40.528;44.712;2023-04-01T00:26:37;79455.63;;;-4.51;71.71
62680;BME280;68213;40.528;44.712;2023-04-01T00:27:38;79449.78;;;-4.43;71.75
62680;BME280;68213;40.528;44.712;2023-04-01T00:28:39;79441.44;;;-4.52;73.69
62680;BME280;68213;40.528;44.712;2023-04-01T00:29:44;79436.97;;;-4.43;73.89
62680;BME280;68213;40.528;44.712;2023-04-01T00:30:46;79443.84;;;-4.62;74.12
62680;BME280;68213;40.528;44.712;2023-04-01T00:31:47;79439.59;;;-4.67;75.09
62680;BME280;68213;40.528;44.712;2023-04-01T00:32:53;79447.16;;;-4.84;74.98
62680;BME280;68213;40.528;44.712;2023-04-01T00:33:53;79444.44;;;-5.02;76.22
62680;BME280;68213;40.528;44.712;2023-04-01T00:34:54;79441.03;;;-5.12;77.18
62680;BME280;68213;40.528;44.712;2023-04-01T00:35:55;79441.38;;;-5.08;76.32
62680;BME280;68213;40.528;44.712;2023-04-01T00:36:57;79440.50;;;-5.03;76.12
62680;BME280;68213;40.528;44.712;2023-04-01T00:37:58;79435.22;;;-4.97;76.33
62680;BME280;68213;40.528;44.712;2023-04-01T00:38:59;79442.72;;;-4.91;76.48
62680;BME280;68213;40.528;44.712;2023-04-01T00:40:00;79442.53;;;-4.86;76.61
62680;BME280;68213;40.528;44.712;2023-04-01T00:41:01;79445.09;;;-4.86;76.38
62680;BME280;68213;40.528;44.712;2023-04-01T00:42:03;79376.50;;;-5.34;75.75
62680;BME280;68213;40.528;44.712;2023-04-01T00:43:10;79437.22;;;-4.80;75.42
62680;BME280;68213;40.528;44.712;2023-04-01T00:44:27;79423.25;;;-4.95;75.47
62680;BME280;68213;40.528;44.712;2023-04-01T00:45:34;79437.41;;;-4.86;74.43
62680;BME280;68213;40.528;44.712;2023-04-01T00:46:35;79433.97;;;-4.81;74.08
62680;BME280;68213;40.528;44.712;2023-04-01T00:47:37;79432.13;;;-4.88;73.70
62680;BME280;68213;40.528;44.712;2023-04-01T00:48:41;79438.09;;;-4.85;73.40
62680;BME280;68213;40.528;44.712;2023-04-01T00:49:46;79436.19;;;-4.85;73.09
62680;BME280;68213;40.528;44.712;2023-04-01T00:51:11;79429.34;;;-4.82;73.21
62680;BME280;68213;40.528;44.712;2023-04-01T00:52:18;79432.94;;;-4.78;71.95
62680;BME280;68213;40.528;44.712;2023-04-01T00:53:20;79438.41;;;-4.73;71.04
62680;BME280;68213;40.528;44.712;2023-04-01T00:54:22;79434.81;;;-4.70;70.46
62680;BME280;68213;40.528;44.712;2023-04-01T00:55:25;79431.91;;;-4.74;69.68
62680;BME280;68213;40.528;44.712;2023-04-01T00:56:36;79442.66;;;-4.76;70.05
62680;BME280;68213;40.528;44.712;2023-04-01T00:57:37;79441.69;;;-4.81;69.80
62680;BME280;68213;40.528;44.712;2023-04-01T00:58:44;79436.19;;;-4.77;70.29
62680;BME280;68213;40.528;44.712;2023-04-01T00:59:49;79417.94;;;-4.89;70.24
62680;BME280;68213;40.528;44.712;2023-04-01T01:00:54;79438.56;;;-4.71;70.55
62680;BME280;68213;40.528;44.712;2023-04-01T01:01:55;79432.44;;;-4.84;70.90
62680;BME280;68213;40.528;44.712;2023-04-01T01:02:56;79437.25;;;-4.88;70.58
62680;BME280;68213;40.528;44.712;2023-04-01T01:03:57;79442.38;;;-4.88;70.82
62680;BME280;68213;40.528;44.712;2023-04-01T01:04:57;79440.16;;;-4.99;70.79
62680;BME280;68213;40.528;44.712;2023-04-01T01:08:46;79428.03;;;-5.06;68.92
62680;BME280;68213;40.528;44.712;2023-04-01T01:10:54;79410.47;;;-5.26;69.57
62680;BME280;68213;40.528;44.712;2023-04-01T01:16:38;79434.16;;;-4.94;65.91
62680;BME280;68213;40.528;44.712;2023-04-01T01:17:48;79431.59;;;-4.94;65.77
62680;BME280;68213;40.528;44.712;2023-04-01T01:23:52;79438.28;;;-5.06;66.13
62680;BME280;68213;40.528;44.712;2023-04-01T01:27:26;79460.69;;;-5.15;68.15
62680;BME280;68213;40.528;44.712;2023-04-01T01:33:13;79481.00;;;-5.55;71.32
62680;BME280;68213;40.528;44.712;2023-04-01T01:35:57;79490.38;;;-5.50;75.01
62680;BME280;68213;40.528;44.712;2023-04-01T01:37:05;79497.56;;;-5.41;76.21
62680;BME280;68213;40.528;44.712;2023-04-01T01:38:13;79501.69;;;-5.38;76.25
62680;BME280;68213;40.528;44.712;2023-04-01T01:39:19;79469.38;;;-5.57;76.46
62680;BME280;68213;40.528;44.712;2023-04-01T01:40:22;79502.19;;;-5.24;76.02
62680;BME280;68213;40.528;44.712;2023-04-01T01:41:26;79511.91;;;-5.15;76.20
62680;BME280;68213;40.528;44.712;2023-04-01T01:42:29;79510.03;;;-5.06;75.38
62680;BME280;68213;40.528;44.712;2023-04-01T01:43:42;79512.25;;;-4.95;74.43
62680;BME280;68213;40.528;44.712;2023-04-01T01:44:47;79508.34;;;-4.96;73.76
62680;BME280;68213;40.528;44.712;2023-04-01T01:45:53;79508.84;;;-4.90;74.14
62680;BME280;68213;40.528;44.712;2023-04-01T01:46:58;79509.34;;;-4.84;73.81
62680;BME280;68213;40.528;44.712;2023-04-01T01:48:02;79508.66;;;-4.76;73.89
62680;BME280;68213;40.528;44.712;2023-04-01T01:49:07;79509.16;;;-4.70;73.43
62680;BME280;68213;40.528;44.712;2023-04-01T01:50:11;79493.47;;;-4.74;73.07
62680;BME280;68213;40.528;44.712;2023-04-01T01:51:12;79501.81;;;-4.66;72.97
62680;BME280;68213;40.528;44.712;2023-04-01T01:52:14;79479.94;;;-4.75;72.54
62680;BME280;68213;40.528;44.712;2023-04-01T01:53:15;79500.94;;;-4.61;72.95
62680;BME280;68213;40.528;44.712;2023-04-01T01:54:17;79494.28;;;-4.56;72.96
62680;BME280;68213;40.528;44.712;2023-04-01T01:56:33;79497.38;;;-4.58;72.63
62680;BME280;68213;40.528;44.712;2023-04-01T01:57:37;79500.44;;;-4.52;72.33
62680;BME280;68213;40.528;44.712;2023-04-01T01:58:45;79496.31;;;-4.47;71.64
62680;BME280;68213;40.528;44.712;2023-04-01T01:59:49;79502.78;;;-4.46;70.17
62680;BME280;68213;40.528;44.712;2023-04-01T02:01:00;79502.47;;;-4.50;69.40
62680;BME280;68213;40.528;44.712;2023-04-01T02:02:02;79501.59;;;-4.45;69.63
62680;BME280;68213;40.528;44.712;2023-04-01T02:03:08;79502.28;;;-4.44;69.38
62680;BME280;68213;40.528;44.712;2023-04-01T02:04:13;79495.28;;;-4.44;69.41
62680;BME280;68213;40.528;44.712;2023-04-01T02:05:21;79498.88;;;-4.47;70.79
62680;BME280;68213;40.528;44.712;2023-04-01T02:06:26;79492.56;;;-4.54;70.85
62680;BME280;68213;40.528;44.712;2023-04-01T02:07:32;79501.81;;;-4.58;70.86
62680;BME280;68213;40.528;44.712;2023-04-01T02:08:42;79492.25;;;-4.58;70.76
62680;BME280;68213;40.528;44.712;2023-04-01T02:09:45;79492.72;;;-4.52;70.56
62680;BME280;68213;40.528;44.712;2023-04-01T02:10:58;79485.53;;;-4.46;69.61
62680;BME280;68213;40.528;44.712;2023-04-01T02:12:06;79487.41;;;-4.46;68.72
62680;BME280;68213;40.528;44.712;2023-04-01T02:13:16;79485.72;;;-4.43;66.95
62680;BME280;68213;40.528;44.712;2023-04-01T02:14:22;79489.44;;;-4.37;66.60
62680;BME280;68213;40.528;44.712;2023-04-01T02:15:25;79486.34;;;-4.35;66.27
62680;BME280;68213;40.528;44.712;2023-04-01T02:17:00;79490.09;;;-4.21;65.42
62680;BME280;68213;40.528;44.712;2023-04-01T02:18:03;79489.38;;;-4.13;65.44
62680;BME280;68213;40.528;44.712;2023-04-01T02:19:05;79491.94;;;-4.13;64.73
62680;BME280;68213;40.528;44.712;2023-04-01T02:20:16;79490.19;;;-4.03;64.41
62680;BME280;68213;40.528;44.712;2023-04-01T02:21:20;79485.72;;;-3.95;64.12
62680;BME280;68213;40.528;44.712;2023-04-01T02:22:33;79487.56;;;-3.88;63.73
62680;BME280;68213;40.528;44.712;2023-04-01T02:23:38;79484.28;;;-3.80;63.39
62680;BME280;68213;40.528;44.712;2023-04-01T02:24:41;79464.63;;;-3.86;63.28
62680;BME280;68213;40.528;44.712;2023-04-01T02:25:44;79472.75;;;-3.72;62.69
62680;BME280;68213;40.528;44.712;2023-04-01T02:26:46;79469.47;;;-3.64;62.90
62680;BME280;68213;40.528;44.712;2023-04-01T02:27:47;79468.44;;;-3.61;63.04
62680;BME280;68213;40.528;44.712;2023-04-01T02:28:49;79468.75;;;-3.57;62.90
62680;BME280;68213;40.528;44.712;2023-04-01T02:29:51;79453.69;;;-3.61;62.40
62680;BME280;68213;40.528;44.712;2023-04-01T02:30:52;79468.00;;;-3.42;62.28
62680;BME280;68213;40.528;44.712;2023-04-01T02:31:54;79469.84;;;-3.35;61.56
62680;BME280;68213;40.528;44.712;2023-04-01T02:32:56;79467.28;;;-3.35;61.14
62680;BME280;68213;40.528;44.712;2023-04-01T02:33:58;79472.03;;;-3.31;61.09
62680;BME280;68213;40.528;44.712;2023-04-01T02:34:59;79474.25;;;-3.28;61.54
62680;BME280;68213;40.528;44.712;2023-04-01T02:36:04;79477.28;;;-3.22;61.26
62680;BME280;68213;40.528;44.712;2023-04-01T02:37:05;79479.66;;;-3.16;61.13
62680;BME280;68213;40.528;44.712;2023-04-01T02:38:06;79478.63;;;-3.13;60.99
62680;BME280;68213;40.528;44.712;2023-04-01T02:39:08;79479.94;;;-3.04;60.49
62680;BME280;68213;40.528;44.712;2023-04-01T02:40:11;79481.28;;;-3.03;60.29
62680;BME280;68213;40.528;44.712;2023-04-01T02:41:12;79485.06;;;-3.04;60.58
62680;BME280;68213;40.528;44.712;2023-04-01T02:42:13;79485.38;;;-3.00;61.25
62680;BME280;68213;40.528;44.712;2023-04-01T02:43:14;79485.75;;;-3.04;60.80
62680;BME280;68213;40.528;44.712;2023-04-01T02:44:16;79490.16;;;-2.96;61.25
62680;BME280;68213;40.528;44.712;2023-04-01T02:45:17;79490.97;;;-2.94;61.44
62680;BME280;68213;40.528;44.712;2023-04-01T02:46:18;79476.78;;;-2.95;61.08
62680;BME280;68213;40.528;44.712;2023-04-01T02:47:18;79495.34;;;-2.79;60.73
62680;BME280;68213;40.528;44.712;2023-04-01T02:48:19;79489.66;;;-2.77;60.10
62680;BME280;68213;40.528;44.712;2023-04-01T02:49:20;79495.66;;;-2.75;61.13
62680;BME280;68213;40.528;44.712;2023-04-01T02:50:20;79492.72;;;-2.71;61.44
62680;BME280;68213;40.528;44.712;2023-04-01T02:51:21;79500.00;;;-2.60;60.55
62680;BME280;68213;40.528;44.712;2023-04-01T02:52:22;79497.97;;;-2.61;59.58
62680;BME280;68213;40.528;44.712;2023-04-01T02:53:23;79495.63;;;-2.49;59.83
62680;BME280;68213;40.528;44.712;2023-04-01T02:54:23;79499.19;;;-2.45;59.63
62680;BME280;68213;40.528;44.712;2023-04-01T02:55:24;79505.50;;;-2.38;59.91
62680;BME280;68213;40.528;44.712;2023-04-01T02:56:25;79504.25;;;-2.55;61.76
62680;BME280;68213;40.528;44.712;2023-04-01T02:57:26;79506.91;;;-2.45;60.37
62680;BME280;68213;40.528;44.712;2023-04-01T02:58:27;79504.34;;;-2.45;59.85
62680;BME280;68213;40.528;44.712;2023-04-01T02:59:27;79515.00;;;-2.48;59.35
62680;BME280;68213;40.528;44.712;2023-04-01T03:00:28;79504.34;;;-2.45;58.96
62680;BME280;68213;40.528;44.712;2023-04-01T03:01:29;79503.97;;;-2.41;60.27
62680;BME280;68213;40.528;44.712;2023-04-01T03:02:29;79508.69;;;-2.30;58.07
62680;BME280;68213;40.528;44.712;2023-04-01T03:03:30;79515.66;;;-2.22;57.79
62680;BME280;68213;40.528;44.712;2023-04-01T03:04:31;79506.66;;;-2.14;57.53
62680;BME280;68213;40.528;44.712;2023-04-01T03:05:31;79512.94;;;-2.07;57.48
62680;BME280;68213;40.528;44.712;2023-04-01T03:06:32;79514.75;;;-2.00;57.29
62680;BME280;68213;40.528;44.712;2023-04-01T03:07:33;79515.75;;;-1.95;58.13
62680;BME280;68213;40.528;44.712;2023-04-01T03:08:34;79494.31;;;-2.15;58.56
62680;BME280;68213;40.528;44.712;2023-04-01T03:09:35;79513.31;;;-1.93;58.43
62680;BME280;68213;40.528;44.712;2023-04-01T03:10:36;79514.53;;;-1.94;58.72
62680;BME280;68213;40.528;44.712;2023-04-01T03:11:36;79512.63;;;-1.94;60.72
62680;BME280;68213;40.528;44.712;2023-04-01T03:13:40;79518.53;;;-2.18;62.04
62680;BME280;68213;40.528;44.712;2023-04-01T03:14:42;79517.84;;;-2.19;62.82
62680;BME280;68213;40.528;44.712;2023-04-01T03:15:43;79505.97;;;-2.57;63.07
62680;BME280;68213;40.528;44.712;2023-04-01T03:16:43;79514.53;;;-2.55;63.44
62680;BME280;68213;40.528;44.712;2023-04-01T03:17:44;79513.50;;;-2.51;62.43
62680;BME280;68213;40.528;44.712;2023-04-01T03:18:46;79526.94;;;-2.61;63.38
62680;BME280;68213;40.528;44.712;2023-04-01T03:19:50;79530.56;;;-2.64;63.39
62680;BME280;68213;40.528;44.712;2023-04-01T03:20:51;79525.00;;;-2.78;64.56
62680;BME280;68213;40.528;44.712;2023-04-01T03:21:52;79526.88;;;-2.78;64.67
62680;BME280;68213;40.528;44.712;2023-04-01T03:22:52;79531.00;;;-2.75;65.02
62680;BME280;68213;40.528;44.712;2023-04-01T03:23:53;79502.53;;;-3.03;65.45
62680;BME280;68213;40.528;44.712;2023-04-01T03:24:54;79533.66;;;-2.91;65.84
62680;BME280;68213;40.528;44.712;2023-04-01T03:25:54;79532.25;;;-2.84;66.13
62680;BME280;68213;40.528;44.712;2023-04-01T03:26:58;79531.09;;;-2.91;66.81
62680;BME280;68213;40.528;44.712;2023-04-01T03:27:59;79527.50;;;-2.95;67.21
62680;BME280;68213;40.528;44.712;2023-04-01T03:29:00;79532.28;;;-2.92;66.68
62680;BME280;68213;40.528;44.712;2023-04-01T03:30:02;79530.34;;;-2.83;64.06
62680;BME280;68213;40.528;44.712;2023-04-01T03:31:04;79528.41;;;-2.75;63.43
62680;BME280;68213;40.528;44.712;2023-04-01T03:32:05;79531.00;;;-2.75;63.57
62680;BME280;68213;40.528;44.712;2023-04-01T03:33:06;79533.88;;;-2.71;63.16
62680;BME280;68213;40.528;44.712;2023-04-01T03:34:09;79526.56;;;-2.57;62.91
62680;BME280;68213;40.528;44.712;2023-04-01T03:35:11;79519.13;;;-2.71;62.90
62680;BME280;68213;40.528;44.712;2023-04-01T03:36:11;79507.47;;;-2.72;62.89
62680;BME280;68213;40.528;44.712;2023-04-01T03:37:15;79520.75;;;-2.58;62.33
62680;BME280;68213;40.528;44.712;2023-04-01T03:38:15;79515.91;;;-2.53;62.27
62680;BME280;68213;40.528;44.712;2023-04-01T03:39:17;79509.03;;;-2.51;61.81
62680;BME280;68213;40.528;44.712;2023-04-01T03:40:19;79509.75;;;-2.58;61.63
62680;BME280;68213;40.528;44.712;2023-04-01T03:41:20;79513.50;;;-2.51;61.27
62680;BME280;68213;40.528;44.712;2023-04-01T03:42:21;79511.00;;;-2.42;60.78
62680;BME280;68213;40.528;44.712;2023-04-01T03:43:22;79516.09;;;-2.34;60.76
62680;BME280;68213;40.528;44.712;2023-04-01T03:44:22;79522.22;;;-2.29;60.82
62680;BME280;68213;40.528;44.712;2023-04-01T03:45:23;79519.06;;;-2.20;60.56
62680;BME280;68213;40.528;44.712;2023-04-01T03:46:24;79517.03;;;-2.21;62.25
62680;BME280;68213;40.528;44.712;2023-04-01T03:47:25;79512.91;;;-2.25;62.96
62680;BME280;68213;40.528;44.712;2023-04-01T03:48:26;79521.22;;;-2.34;63.33
62680;BME280;68213;40.528;44.712;2023-04-01T03:49:27;79523.44;;;-2.30;63.10
62680;BME280;68213;40.528;44.712;2023-04-01T03:50:27;79513.28;;;-2.28;62.37
62680;BME280;68213;40.528;44.712;2023-04-01T03:51:28;79521.56;;;-2.30;62.73
62680;BME280;68213;40.528;44.712;2023-04-01T03:52:29;79522.31;;;-2.37;62.46
62680;BME280;68213;40.528;44.712;2023-04-01T03:53:30;79488.72;;;-2.64;63.12
62680;BME280;68213;40.528;44.712;2023-04-01T03:54:30;79525.16;;;-2.50;62.58
62680;BME280;68213;40.528;44.712;2023-04-01T03:55:32;79524.84;;;-2.55;61.79
62680;BME280;68213;40.528;44.712;2023-04-01T03:56:35;79518.78;;;-2.49;62.42
62680;BME280;68213;40.528;44.712;2023-04-01T03:57:36;79526.50;;;-2.49;61.66
62680;BME280;68213;40.528;44.712;2023-04-01T03:58:39;79521.16;;;-2.44;62.23
62680;BME280;68213;40.528;44.712;2023-04-01T03:59:39;79525.78;;;-2.42;63.85
62680;BME280;68213;40.528;44.712;2023-04-01T04:00:40;79518.06;;;-2.42;63.52
62680;BME280;68213;40.528;44.712;2023-04-01T04:01:41;79498.47;;;-2.63;64.27
62680;BME280;68213;40.528;44.712;2023-04-01T04:02:42;79521.59;;;-2.37;63.98
62680;BME280;68213;40.528;44.712;2023-04-01T04:03:45;79519.31;;;-2.51;63.87
62680;BME280;68213;40.528;44.712;2023-04-01T04:04:46;79525.16;;;-2.50;63.92
62680;BME280;68213;40.528;44.712;2023-04-01T04:05:48;79527.88;;;-2.48;64.17
62680;BME280;68213;40.528;44.712;2023-04-01T04:06:48;79527.41;;;-2.55;64.37
62680;BME280;68213;40.528;44.712;2023-04-01T04:07:50;79526.78;;;-2.63;64.79
62680;BME280;68213;40.528;44.712;2023-04-01T04:08:50;79536.03;;;-2.60;64.30
62680;BME280;68213;40.528;44.712;2023-04-01T04:09:51;79533.38;;;-2.52;64.88
62680;BME280;68213;40.528;44.712;2023-04-01T04:10:55;79505.34;;;-2.65;64.38
62680;BME280;68213;40.528;44.712;2023-04-01T04:11:56;79532.13;;;-2.43;64.66
62680;BME280;68213;40.528;44.712;2023-04-01T04:12:57;79544.75;;;-2.55;65.00
62680;BME280;68213;40.528;44.712;2023-04-01T04:13:57;79535.13;;;-2.80;63.91
62680;BME280;68213;40.528;44.712;2023-04-01T04:14:58;79544.88;;;-2.78;64.01
62680;BME280;68213;40.528;44.712;2023-04-01T04:15:58;79547.22;;;-2.65;63.72
62680;BME280;68213;40.528;44.712;2023-04-01T04:16:59;79546.78;;;-2.53;63.38
62680;BME280;68213;40.528;44.712;2023-04-01T04:18:02;79547.09;;;-2.49;64.01
62680;BME280;68213;40.528;44.712;2023-04-01T04:19:03;79558.19;;;-2.39;63.53
62680;BME280;68213;40.528;44.712;2023-04-01T04:20:05;79551.06;;;-2.31;63.40
62680;BME280;68213;40.528;44.712;2023-04-01T04:21:06;79546.00;;;-2.38;62.44
62680;BME280;68213;40.528;44.712;2023-04-01T04:22:07;79552.13;;;-2.34;62.48
62680;BME280;68213;40.528;44.712;2023-04-01T04:23:07;79549.53;;;-2.34;62.38
62680;BME280;68213;40.528;44.712;2023-04-01T04:24:08;79561.53;;;-2.29;62.20
62680;BME280;68213;40.528;44.712;2023-04-01T04:25:09;79562.28;;;-2.18;61.70
62680;BME280;68213;40.528;44.712;2023-04-01T04:26:12;79553.38;;;-2.17;61.99
62680;BME280;68213;40.528;44.712;2023-04-01T04:27:13;79560.09;;;-2.22;62.04
62680;BME280;68213;40.528;44.712;2023-04-01T04:28:14;79549.78;;;-2.22;62.46
62680;BME280;68213;40.528;44.712;2023-04-01T04:29:15;79557.28;;;-2.34;61.46
62680;BME280;68213;40.528;44.712;2023-04-01T04:30:16;79531.31;;;-2.46;61.36
62680;BME280;68213;40.528;44.712;2023-04-01T04:31:21;79556.47;;;-2.19;60.46
62680;BME280;68213;40.528;44.712;2023-04-01T04:32:23;79559.84;;;-2.09;60.97
62680;BME280;68213;40.528;44.712;2023-04-01T04:33:24;79554.31;;;-2.05;60.77
62680;BME280;68213;40.528;44.712;2023-04-01T04:34:25;79556.72;;;-2.07;61.56
62680;BME280;68213;40.528;44.712;2023-04-01T04:35:26;79558.84;;;-1.96;61.79
62680;BME280;68213;40.528;44.712;2023-04-01T04:36:26;79561.38;;;-1.88;61.59
62680;BME280;68213;40.528;44.712;2023-04-01T04:37:28;79561.88;;;-1.89;61.38
62680;BME280;68213;40.528;44.712;2023-04-01T04:38:29;79563.41;;;-1.86;61.15
62680;BME280;68213;40.528;44.712;2023-04-01T04:39:30;79566.06;;;-1.77;61.48
62680;BME280;68213;40.528;44.712;2023-04-01T04:40:31;79570.16;;;-1.73;61.47
62680;BME280;68213;40.528;44.712;2023-04-01T04:41:32;79581.09;;;-1.65;61.11
62680;BME280;68213;40.528;44.712;2023-04-01T04:42:32;79572.66;;;-1.66;60.94
62680;BME280;68213;40.528;44.712;2023-04-01T04:43:33;79574.72;;;-1.64;61.33
62680;BME280;68213;40.528;44.712;2023-04-01T04:44:35;79590.25;;;-1.54;61.63
62680;BME280;68213;40.528;44.712;2023-04-01T04:45:36;79580.63;;;-1.54;61.29
62680;BME280;68213;40.528;44.712;2023-04-01T04:46:36;79595.69;;;-1.50;61.40
62680;BME280;68213;40.528;44.712;2023-04-01T04:47:40;79589.03;;;-1.53;61.00
62680;BME280;68213;40.528;44.712;2023-04-01T04:48:42;79593.13;;;-1.50;61.20
62680;BME280;68213;40.528;44.712;2023-04-01T04:49:44;79600.03;;;-1.35;60.54
62680;BME280;68213;40.528;44.712;2023-04-01T04:50:49;79603.81;;;-1.36;60.63
62680;BME280;68213;40.528;44.712;2023-04-01T04:51:50;79597.22;;;-1.47;61.33
62680;BME280;68213;40.528;44.712;2023-04-01T04:52:52;79611.94;;;-1.40;61.94
62680;BME280;68213;40.528;44.712;2023-04-01T04:53:53;79612.38;;;-1.51;63.62
62680;BME280;68213;40.528;44.712;2023-04-01T04:54:53;79610.56;;;-1.58;64.09
62680;BME280;68213;40.528;44.712;2023-04-01T04:55:54;79613.59;;;-1.52;64.02
62680;BME280;68213;40.528;44.712;2023-04-01T04:56:55;79615.94;;;-1.64;64.69
62680;BME280;68213;40.528;44.712;2023-04-01T04:57:56;79609.81;;;-1.69;64.78
62680;BME280;68213;40.528;44.712;2023-04-01T04:58:57;79613.59;;;-1.70;64.74
62680;BME280;68213;40.528;44.712;2023-04-01T04:59:57;79618.03;;;-1.70;65.09
62680;BME280;68213;40.528;44.712;2023-04-01T05:00:58;79616.47;;;-1.66;64.69
62680;BME280;68213;40.528;44.712;2023-04-01T05:01:58;79619.78;;;-1.73;64.14
62680;BME280;68213;40.528;44.712;2023-04-01T05:02:59;79625.53;;;-1.82;64.36
62680;BME280;68213;40.528;44.712;2023-04-01T05:04:03;79619.16;;;-1.81;65.12
62680;BME280;68213;40.528;44.712;2023-04-01T05:05:04;79616.72;;;-1.97;66.49
62680;BME280;68213;40.528;44.712;2023-04-01T05:06:06;79625.97;;;-1.94;65.84
62680;BME280;68213;40.528;44.712;2023-04-01T05:07:07;79626.34;;;-1.97;65.32
62680;BME280;68213;40.528;44.712;2023-04-01T05:08:08;79623.97;;;-2.03;66.89
62680;BME280;68213;40.528;44.712;2023-04-01T05:09:08;79632.53;;;-2.00;67.37
62680;BME280;68213;40.528;44.712;2023-04-01T05:10:09;79627.38;;;-2.00;67.47
62680;BME280;68213;40.528;44.712;2023-04-01T05:11:16;79625.72;;;-2.05;67.47
62680;BME280;68213;40.528;44.712;2023-04-01T05:12:17;79629.59;;;-1.97;66.72
62680;BME280;68213;40.528;44.712;2023-04-01T05:13:17;79634.00;;;-1.89;66.20
62680;BME280;68213;40.528;44.712;2023-04-01T05:14:18;79631.88;;;-2.01;66.97
62680;BME280;68213;40.528;44.712;2023-04-01T05:15:19;79635.72;;;-2.35;68.24
62680;BME280;68213;40.528;44.712;2023-04-01T05:16:20;79632.44;;;-2.35;69.11
62680;BME280;68213;40.528;44.712;2023-04-01T05:17:24;79633.72;;;-2.44;69.88
62680;BME280;68213;40.528;44.712;2023-04-01T05:18:25;79642.44;;;-2.73;70.45
62680;BME280;68213;40.528;44.712;2023-04-01T05:19:26;79638.22;;;-2.85;71.30
62680;BME280;68213;40.528;44.712;2023-04-01T05:20:26;79641.38;;;-2.95;71.74
62680;BME280;68213;40.528;44.712;2023-04-01T05:21:27;79645.38;;;-2.76;71.18
62680;BME280;68213;40.528;44.712;2023-04-01T05:22:28;79648.13;;;-2.74;71.47
62680;BME280;68213;40.528;44.712;2023-04-01T05:23:31;79648.16;;;-2.82;72.04
62680;BME280;68213;40.528;44.712;2023-04-01T05:24:32;79637.63;;;-2.68;71.21
62680;BME280;68213;40.528;44.712;2023-04-01T05:25:33;79644.94;;;-2.57;71.29
62680;BME280;68213;40.528;44.712;2023-04-01T05:26:33;79626.63;;;-2.61;70.66
62680;BME280;68213;40.528;44.712;2023-04-01T05:27:34;79643.44;;;-2.35;70.62
62680;BME280;68213;40.528;44.712;2023-04-01T05:28:35;79644.41;;;-2.30;70.50
62680;BME280;68213;40.528;44.712;2023-04-01T05:29:35;79644.97;;;-2.32;70.23
62680;BME280;68213;40.528;44.712;2023-04-01T05:30:36;79641.34;;;-2.29;70.92
62680;BME280;68213;40.528;44.712;2023-04-01T05:31:37;79646.13;;;-2.25;70.67
62680;BME280;68213;40.528;44.712;2023-04-01T05:32:37;79649.38;;;-2.25;70.60
62680;BME280;68213;40.528;44.712;2023-04-01T05:33:38;79648.47;;;-2.19;70.03
62680;BME280;68213;40.528;44.712;2023-04-01T05:34:39;79653.94;;;-2.15;69.92
62680;BME280;68213;40.528;44.712;2023-04-01T05:35:40;79648.81;;;-2.15;70.12
62680;BME280;68213;40.528;44.712;2023-04-01T05:36:42;79641.13;;;-2.23;70.47
62680;BME280;68213;40.528;44.712;2023-04-01T05:37:43;79642.84;;;-2.26;70.58
62680;BME280;68213;40.528;44.712;2023-04-01T05:38:44;79639.53;;;-2.18;70.57
62680;BME280;68213;40.528;44.712;2023-04-01T05:39:48;79640.88;;;-2.10;70.13
62680;BME280;68213;40.528;44.712;2023-04-01T05:40:48;79642.53;;;-2.04;70.42
62680;BME280;68213;40.528;44.712;2023-04-01T05:41:49;79639.75;;;-1.99;69.65
62680;BME280;68213;40.528;44.712;2023-04-01T05:42:50;79644.31;;;-1.89;68.59
62680;BME280;68213;40.528;44.712;2023-04-01T05:43:50;79649.22;;;-2.01;68.08
62680;BME280;68213;40.528;44.712;2023-04-01T05:44:51;79643.53;;;-2.00;68.72
62680;BME280;68213;40.528;44.712;2023-04-01T05:45:52;79654.47;;;-2.17;70.06
62680;BME280;68213;40.528;44.712;2023-04-01T05:46:52;79648.63;;;-2.17;70.47
62680;BME280;68213;40.528;44.712;2023-04-01T05:47:53;79653.69;;;-2.27;70.86
62680;BME280;68213;40.528;44.712;2023-04-01T05:48:54;79568.72;;;-3.03;72.03
62680;BME280;68213;40.528;44.712;2023-04-01T05:49:55;79649.44;;;-2.32;72.32